Terminal Aerodrome Forecast
Issued by NWS

Current Version | Previous Version | Text Only | Print | Product List | Glossary On
Versions: 1 2 3 4 5 6 7 8 9 10 11 12 13 14
000
FTUS42 TJSJ 200500
TAFJBQ
TAF
TJBQ 200530Z 2006/2106 00000KT P6SM FEW025
     FM201400 08013KT P6SM SCT025
     FM201700 08015KT P6SM VCTS SCT025CB BKN040
     FM202200 10010KT P6SM SCT025
      AMD NOT SKED TIL 201100=

USA.gov is the U.S. government's official web portal to all federal, state and local government web resources and services.